Aeroporto :







RITROVATECI SU...

 
LOGIN :

Iscrizione | Disclaimer

   EN    FR    IT 

 









Sommario :    VFR   VFR Marginale   IFR   IFR Intensivo   IFR Molto Intensivo
Visibilità : 
Base nubi : 
>= 8 km
>= 3000ft
5 / 8 km
1000 / 3000 ft
1500m / 5 km
500 / 1000 ft
800 / 1500m
200 / 500 ft
< 800m
< 200 ft
Simboli :   Temporali  Nebbia  Neve Forte  Precipitazioni Forti  Vento > 20 kt






- Altitudine del aeroporto : 586 ft
- Codice IATA : YRJ


CYRJ - Roberval

ULTIMO METAR :
  • 281800Z 23013G19KT 210V280 25SM BKN075 BKN180 33/15 A2984 RMK CU5AS2 SLP103 DENSITY ALT 2900FT

METARs OBSOLETI :
  • 281700Z 24012KT 210V280 25SM BKN070 BKN200 32/15 A2986 RMK CU4CI2 SLP110 DENSITY ALT 2800FT
  • 281600Z 26012KT 200V290 25SM FEW035 FEW160 SCT200 31/16 A2988 RMK CU2AS1CC1 AS TR SLP117 DENSITY ALT 2700FT

TAF TAF CYRJ
Valido dal 28 a 14 ore il 29 a 02 ore UTC


281330Z 2814/2902 23010KT P6SM FEW025 SCT080 BKN210
FM281800 22012G22KT P6SM BKN070
TEMPO 2818/2823 P6SM -SHRA
FM282300 21012KT P6SM SCT080 BKN150 RMK NXT FCST BY 282000Z
FIR CZUL / America del Nord



MetMap, La meteo Aeronautica in un colpo d'occhio ! - Copyright ORBIFLY Dicembre 2007 - Disclaimer

ORBIFLY MET'MAP TEAM :

Programmazione e sviluppo : Alexandra Zaïnal
Concezione : Baudouin d'Aumeries
Aiuto per la programmazione : Marc-Olivier Méhu
Supporto tecnico e logistico : Manuel Goepfert
Aiuto per la traduzione : Arnaldo La Scala

Contatto : metmap@orbifly.com




FONTI E CREDITI :

   NOAA